createdAt,value
2023-02-13T00:02:29.103Z,39.30
2023-02-13T00:05:19.493Z,36.47
2023-02-13T00:08:09.824Z,39.67
2023-02-13T00:11:00.462Z,45.95
2023-02-13T00:13:50.611Z,34.22
2023-02-13T00:16:40.960Z,39.72
2023-02-13T00:19:34.383Z,37.95
2023-02-13T00:22:24.568Z,42.67
2023-02-13T00:25:14.406Z,38.05
2023-02-13T00:28:04.277Z,42.15
2023-02-13T00:30:54.836Z,34.75
2023-02-13T00:33:45.555Z,47.10
2023-02-13T00:36:36.112Z,36.50
2023-02-13T00:39:26.606Z,35.58
2023-02-13T00:42:16.842Z,38.28
2023-02-13T00:45:08.846Z,39.25
2023-02-13T00:47:58.817Z,34.72
2023-02-13T00:50:49.206Z,37.78
2023-02-13T00:53:39.509Z,39.50
2023-02-13T00:56:29.836Z,36.70
2023-02-13T00:59:19.850Z,37.83
2023-02-13T01:02:09.676Z,40.40
2023-02-13T01:04:59.482Z,37.55
2023-02-13T01:07:50.498Z,36.15
2023-02-13T01:10:41.196Z,36.30
2023-02-13T01:13:32.117Z,35.90
2023-02-13T01:16:22.074Z,34.35
2023-02-13T01:19:12.542Z,46.63
2023-02-13T01:22:02.942Z,37.00
2023-02-13T01:24:53.220Z,36.45
2023-02-13T01:27:43.524Z,35.08
2023-02-13T01:30:33.389Z,35.40
2023-02-13T01:33:24.995Z,33.03
2023-02-13T01:36:15.890Z,38.13
2023-02-13T01:39:06.334Z,38.92
2023-02-13T01:41:56.316Z,38.28
2023-02-13T01:44:58.469Z,36.38
2023-02-13T01:47:53.976Z,42.00
2023-02-13T01:50:53.510Z,39.03
2023-02-13T01:53:48.793Z,31.73
2023-02-13T01:56:44.439Z,40.85
2023-02-13T01:59:40.638Z,35.28
2023-02-13T02:02:34.799Z,33.13
2023-02-13T02:05:28.914Z,37.88
2023-02-13T02:11:40.533Z,33.67
2023-02-13T02:14:31.746Z,32.40
2023-02-13T02:17:25.348Z,36.20
2023-02-13T02:20:37.390Z,34.28
2023-02-13T02:23:49.504Z,35.17
2023-02-13T02:26:59.962Z,34.40
2023-02-13T02:30:42.032Z,37.95
2023-02-13T02:34:09.536Z,35.95
2023-02-13T02:37:20.080Z,35.15
2023-02-13T02:40:28.194Z,32.72
2023-02-13T02:43:44.661Z,39.05
2023-02-13T02:47:00.298Z,35.90
2023-02-13T02:50:38.112Z,33.42
2023-02-13T02:53:56.886Z,35.42
2023-02-13T02:56:48.885Z,39.72
2023-02-13T03:00:00.171Z,33.97
2023-02-13T03:03:08.985Z,38.53
2023-02-13T03:06:11.457Z,34.97
2023-02-13T03:09:24.948Z,38.53
2023-02-13T03:12:41.163Z,36.83
2023-02-13T03:15:32.597Z,43.92
2023-02-13T03:18:41.207Z,43.42
2023-02-13T03:21:56.523Z,39.78
2023-02-13T03:25:10.817Z,39.38
2023-02-13T03:31:28.851Z,35.63
2023-02-13T03:34:23.803Z,33.65
2023-02-13T03:37:36.812Z,38.38
2023-02-13T03:40:32.768Z,37.78
2023-02-13T03:43:25.763Z,45.30
2023-02-13T03:46:17.929Z,36.75
2023-02-13T03:49:34.634Z,36.22
2023-02-13T03:52:31.284Z,37.78
2023-02-13T03:55:44.332Z,38.13
2023-02-13T03:58:54.632Z,27.65
2023-02-13T04:01:58.445Z,38.25
2023-02-13T04:04:59.808Z,45.63
2023-02-13T04:07:49.992Z,52.40
2023-02-13T04:11:11.916Z,48.20
2023-02-13T04:14:14.054Z,43.78
2023-02-13T04:17:08.851Z,43.85
2023-02-13T04:19:59.205Z,44.97
2023-02-13T04:22:49.284Z,51.90
2023-02-13T04:25:41.743Z,58.55
2023-02-13T04:28:32.326Z,49.97
2023-02-13T04:31:22.867Z,45.38
2023-02-13T04:34:13.278Z,53.08
2023-02-13T04:37:03.100Z,47.47
2023-02-13T04:39:52.896Z,46.85
2023-02-13T04:42:42.820Z,46.75
2023-02-13T04:45:33.144Z,42.97
2023-02-13T04:48:23.270Z,49.00
2023-02-13T04:51:13.444Z,59.40
2023-02-13T04:54:03.789Z,61.63
2023-02-13T04:56:54.118Z,63.13
2023-02-13T04:59:44.227Z,54.03
2023-02-13T05:02:34.604Z,51.65
2023-02-13T05:05:24.824Z,51.20
2023-02-13T05:08:15.349Z,74.10
2023-02-13T05:11:05.920Z,115.88
2023-02-13T05:13:55.973Z,113.78
2023-02-13T05:16:46.772Z,120.25
2023-02-13T05:19:36.744Z,165.00
2023-02-13T05:22:45.428Z,50.00
2023-02-13T05:25:37.930Z,65.40
2023-02-13T05:28:46.819Z,113.53
2023-02-13T05:31:37.228Z,139.35
2023-02-13T05:34:28.833Z,64.72
2023-02-13T05:37:18.821Z,82.40
2023-02-13T05:40:11.128Z,120.10
2023-02-13T05:43:01.287Z,113.55
2023-02-13T05:45:52.280Z,99.15
2023-02-13T05:48:42.753Z,81.65
2023-02-13T05:51:33.116Z,62.63
2023-02-13T05:54:23.487Z,100.85
2023-02-13T05:57:13.262Z,80.35
2023-02-13T06:00:05.076Z,90.13
2023-02-13T06:02:56.030Z,76.43
2023-02-13T06:05:46.288Z,105.97
2023-02-13T06:08:36.865Z,122.47
2023-02-13T06:11:27.143Z,66.85
2023-02-13T06:14:17.252Z,89.40
2023-02-13T06:17:07.589Z,83.20
2023-02-13T06:19:58.009Z,97.40
2023-02-13T06:22:50.553Z,72.10
2023-02-13T06:25:40.963Z,69.13
2023-02-13T06:28:31.468Z,61.67
2023-02-13T06:31:21.966Z,110.88
2023-02-13T06:34:12.288Z,89.15
2023-02-13T06:37:02.852Z,58.30
2023-02-13T06:39:53.052Z,94.63
2023-02-13T06:42:44.508Z,70.05
2023-02-13T06:45:34.703Z,74.60
2023-02-13T06:48:25.574Z,57.95
2023-02-13T06:51:15.933Z,65.65
2023-02-13T06:54:05.981Z,70.93
2023-02-13T06:56:56.264Z,67.00
2023-02-13T06:59:46.371Z,80.45
2023-02-13T07:02:37.389Z,78.32
2023-02-13T07:05:27.690Z,79.63
2023-02-13T07:08:18.401Z,74.13
2023-02-13T07:11:08.437Z,58.72
2023-02-13T07:13:58.633Z,87.45
2023-02-13T07:16:48.861Z,74.22
2023-02-13T07:19:39.267Z,64.95
2023-02-13T07:22:32.155Z,36.90
2023-02-13T07:25:22.184Z,29.13
2023-02-13T07:28:13.574Z,43.70
2023-02-13T07:31:05.970Z,54.25
2023-02-13T07:33:56.081Z,55.97
2023-02-13T07:36:45.967Z,57.85
2023-02-13T07:39:38.882Z,52.38
2023-02-13T07:42:29.152Z,54.93
2023-02-13T07:45:19.840Z,50.17
2023-02-13T07:48:09.934Z,66.32
2023-02-13T07:51:04.860Z,48.95
2023-02-13T07:53:56.561Z,50.00
2023-02-13T07:56:46.504Z,48.75
2023-02-13T07:59:36.653Z,45.38
2023-02-13T08:02:26.902Z,51.38
2023-02-13T08:05:17.406Z,52.30
2023-02-13T08:08:07.731Z,42.65
2023-02-13T08:11:23.871Z,51.60
2023-02-13T08:14:14.000Z,62.45
2023-02-13T08:17:04.500Z,45.20
2023-02-13T08:19:55.107Z,50.35
2023-02-13T08:22:45.290Z,43.92
2023-02-13T08:25:36.022Z,51.08
2023-02-13T08:28:26.044Z,48.90
2023-02-13T08:31:16.366Z,46.03
2023-02-13T08:34:06.840Z,40.88
2023-02-13T08:36:57.042Z,43.03
2023-02-13T08:39:46.964Z,41.90
2023-02-13T08:42:37.609Z,38.15
2023-02-13T08:45:28.190Z,40.83
2023-02-13T08:48:18.355Z,41.90
2023-02-13T08:51:11.517Z,38.10
2023-02-13T08:54:01.484Z,35.53
2023-02-13T08:56:51.478Z,30.25
2023-02-13T08:59:41.678Z,33.78
2023-02-13T09:02:32.090Z,36.17
2023-02-13T09:05:22.408Z,31.60
2023-02-13T09:08:13.712Z,33.65
2023-02-13T09:11:07.269Z,33.60
2023-02-13T09:13:57.299Z,31.67
2023-02-13T09:16:47.211Z,32.13
2023-02-13T09:19:41.368Z,34.40
2023-02-13T09:22:31.337Z,33.70
2023-02-13T09:25:21.709Z,35.78
2023-02-13T09:28:11.872Z,33.45
2023-02-13T09:31:30.160Z,34.05
2023-02-13T09:34:23.410Z,36.10
2023-02-13T09:37:13.413Z,34.67
2023-02-13T09:40:04.304Z,34.67
2023-02-13T09:43:10.331Z,37.45
2023-02-13T09:46:09.846Z,31.67
2023-02-13T09:49:04.985Z,32.10
2023-02-13T09:51:57.417Z,30.10
2023-02-13T09:54:47.745Z,29.48
2023-02-13T09:57:46.292Z,31.20
2023-02-13T10:00:43.010Z,25.95
2023-02-13T10:03:47.303Z,28.55
2023-02-13T10:06:50.057Z,24.65
2023-02-13T10:09:48.092Z,20.65
2023-02-13T10:13:05.716Z,22.33
2023-02-13T10:16:12.504Z,23.00
2023-02-13T10:19:06.808Z,21.00
2023-02-13T10:22:04.451Z,20.23
2023-02-13T10:25:02.844Z,21.42
2023-02-13T10:28:05.927Z,35.72
2023-02-13T10:31:05.867Z,30.10
2023-02-13T10:34:04.646Z,19.23
2023-02-13T10:36:55.367Z,44.10
2023-02-13T10:39:51.641Z,18.90
2023-02-13T10:43:17.127Z,21.83
2023-02-13T10:46:22.314Z,19.45
2023-02-13T10:49:50.055Z,19.23
2023-02-13T10:53:01.541Z,21.88
2023-02-13T10:56:00.161Z,17.67
2023-02-13T10:59:18.093Z,18.08
2023-02-13T11:02:25.464Z,19.35
2023-02-13T11:05:22.649Z,19.23
2023-02-13T11:08:34.036Z,20.25
2023-02-13T11:11:36.195Z,22.85
2023-02-13T11:14:26.950Z,18.95
2023-02-13T11:17:18.974Z,22.10
2023-02-13T11:20:34.056Z,21.08
2023-02-13T11:23:30.666Z,21.35
2023-02-13T11:26:33.783Z,19.10
2023-02-13T11:29:29.332Z,24.75
2023-02-13T11:32:28.103Z,25.25
2023-02-13T11:35:35.523Z,24.17
2023-02-13T11:38:25.830Z,23.90
2023-02-13T11:41:18.064Z,22.88
2023-02-13T11:44:30.425Z,22.20
2023-02-13T11:47:45.582Z,21.48
2023-02-13T11:50:37.657Z,24.70
2023-02-13T11:53:35.616Z,24.92
2023-02-13T11:56:25.807Z,21.80
2023-02-13T11:59:16.201Z,22.42
2023-02-13T12:02:21.615Z,21.92
2023-02-13T12:05:27.440Z,22.23
2023-02-13T12:08:17.871Z,19.77
2023-02-13T12:11:38.476Z,18.88
2023-02-13T12:14:36.364Z,20.42
2023-02-13T12:17:32.346Z,22.70
2023-02-13T12:20:27.261Z,20.13
2023-02-13T12:26:29.570Z,23.23
2023-02-13T12:29:38.548Z,25.15
2023-02-13T12:33:04.350Z,17.40
2023-02-13T12:36:16.696Z,20.75
2023-02-13T12:39:32.973Z,20.17
2023-02-13T12:43:01.927Z,16.73
2023-02-13T12:46:20.679Z,20.83
2023-02-13T12:49:38.009Z,19.92
2023-02-13T12:52:48.256Z,19.50
2023-02-13T12:55:41.224Z,18.25
2023-02-13T12:58:44.589Z,22.30
2023-02-13T13:02:00.485Z,18.27
2023-02-13T13:05:01.631Z,17.95
2023-02-13T13:08:08.258Z,19.45
2023-02-13T13:11:06.818Z,20.65
2023-02-13T13:14:08.350Z,16.75
2023-02-13T13:17:36.396Z,17.27
2023-02-13T13:20:41.934Z,17.65
2023-02-13T13:23:46.065Z,19.83
2023-02-13T13:29:45.421Z,18.42
2023-02-13T13:32:37.025Z,17.98
2023-02-13T13:35:28.610Z,20.75
2023-02-13T13:38:34.157Z,19.83
2023-02-13T13:41:41.490Z,20.80
2023-02-13T13:44:50.380Z,18.55
2023-02-13T13:48:11.501Z,19.23
2023-02-13T13:51:02.415Z,16.52
2023-02-13T13:54:01.604Z,16.85
2023-02-13T13:56:56.835Z,14.57
2023-02-13T13:59:51.492Z,16.52
2023-02-13T14:02:45.566Z,22.60
2023-02-13T14:06:15.565Z,19.20
2023-02-13T14:09:06.978Z,16.60
2023-02-13T14:11:58.433Z,15.88
2023-02-13T14:14:49.168Z,14.32
2023-02-13T14:17:45.626Z,12.85
2023-02-13T14:20:44.309Z,14.90
2023-02-13T14:23:50.647Z,19.38
2023-02-13T14:26:41.374Z,13.13
2023-02-13T14:29:33.898Z,12.55
2023-02-13T14:32:37.766Z,13.70
2023-02-13T14:35:31.191Z,16.37
2023-02-13T14:38:25.802Z,13.20
2023-02-13T14:41:49.245Z,13.18
2023-02-13T14:44:45.734Z,12.52
2023-02-13T14:47:44.254Z,11.77
2023-02-13T14:50:48.805Z,12.27
2023-02-13T14:53:52.946Z,10.35
2023-02-13T14:56:46.278Z,9.43
2023-02-13T14:59:43.354Z,11.32
2023-02-13T15:02:44.989Z,10.38
2023-02-13T15:05:35.989Z,11.00
2023-02-13T15:08:32.620Z,12.70
2023-02-13T15:11:42.962Z,12.80
2023-02-13T15:14:37.288Z,12.48
2023-02-13T15:17:32.835Z,10.93
2023-02-13T15:20:26.654Z,12.48
2023-02-13T15:23:23.121Z,10.82
2023-02-13T15:26:20.474Z,12.43
2023-02-13T15:29:26.678Z,11.75
2023-02-13T15:32:25.885Z,10.50
2023-02-13T15:35:29.320Z,9.98
2023-02-13T15:38:31.303Z,13.65
2023-02-13T15:41:24.674Z,14.15
2023-02-13T15:44:37.346Z,10.07
2023-02-13T15:47:31.642Z,12.18
2023-02-13T15:50:29.754Z,11.25
2023-02-13T15:53:19.887Z,12.65
2023-02-13T15:56:14.252Z,11.05
2023-02-13T15:59:04.690Z,11.40
2023-02-13T16:01:55.277Z,12.43
2023-02-13T16:04:47.023Z,14.63
2023-02-13T16:07:54.648Z,14.45
2023-02-13T16:10:44.726Z,14.68
2023-02-13T16:13:35.005Z,14.82
2023-02-13T16:16:25.685Z,12.45
2023-02-13T16:19:27.181Z,13.57
2023-02-13T16:22:29.532Z,15.30
2023-02-13T16:25:30.687Z,13.32
2023-02-13T16:28:24.888Z,13.32
2023-02-13T16:31:16.958Z,15.55
2023-02-13T16:34:34.063Z,15.20
2023-02-13T16:37:29.281Z,14.95
2023-02-13T16:40:31.797Z,15.80
2023-02-13T16:43:40.956Z,20.85
2023-02-13T16:46:40.148Z,18.02
2023-02-13T16:49:36.249Z,17.70
2023-02-13T16:52:26.755Z,20.48
2023-02-13T16:55:17.057Z,17.77
2023-02-13T16:58:18.445Z,19.48
2023-02-13T17:01:15.701Z,17.60
2023-02-13T17:04:22.457Z,19.38
2023-02-13T17:07:18.233Z,18.77
2023-02-13T17:10:27.128Z,18.83
2023-02-13T17:13:19.189Z,18.70
2023-02-13T17:16:10.159Z,18.58
2023-02-13T17:19:00.444Z,18.55
2023-02-13T17:21:53.306Z,22.58
2023-02-13T17:24:43.012Z,19.67
2023-02-13T17:27:33.525Z,19.67
2023-02-13T17:30:30.058Z,23.27
2023-02-13T17:33:23.149Z,21.10
2023-02-13T17:36:13.636Z,20.90
2023-02-13T17:39:03.616Z,23.42
2023-02-13T17:41:53.432Z,22.13
2023-02-13T17:44:44.438Z,23.90
2023-02-13T17:47:34.821Z,27.80
2023-02-13T17:50:26.878Z,23.90
2023-02-13T17:53:26.369Z,24.77
2023-02-13T17:56:16.340Z,24.00
2023-02-13T17:59:06.277Z,28.58
2023-02-13T18:01:56.559Z,23.92
2023-02-13T18:04:47.469Z,23.10
2023-02-13T18:07:39.453Z,28.65
2023-02-13T18:10:32.805Z,26.65
2023-02-13T18:13:22.882Z,25.05
2023-02-13T18:16:12.867Z,29.00
2023-02-13T18:19:04.010Z,25.42
2023-02-13T18:21:54.491Z,23.58
2023-02-13T18:24:44.777Z,25.75
2023-02-13T18:27:34.965Z,38.97
2023-02-13T18:30:25.600Z,26.60
2023-02-13T18:33:16.077Z,25.40
2023-02-13T18:36:06.252Z,28.25
2023-02-13T18:38:56.129Z,29.45
2023-02-13T18:41:46.065Z,23.08
2023-02-13T18:44:36.122Z,29.40
2023-02-13T18:47:26.144Z,31.25
2023-02-13T18:50:16.670Z,29.05
2023-02-13T18:53:07.097Z,28.67
2023-02-13T18:56:02.428Z,205.38
2023-02-13T18:58:52.314Z,80.72
2023-02-13T19:01:42.403Z,48.25
2023-02-13T19:04:35.036Z,43.28
2023-02-13T19:07:25.363Z,36.88
2023-02-13T19:10:15.781Z,32.47
2023-02-13T19:13:06.334Z,33.30
2023-02-13T19:15:56.307Z,31.20
2023-02-13T19:18:49.243Z,36.25
2023-02-13T19:21:39.590Z,35.67
2023-02-13T19:24:29.979Z,42.47
2023-02-13T19:27:20.041Z,34.17
2023-02-13T19:30:12.395Z,32.00
2023-02-13T19:33:02.146Z,36.58
2023-02-13T19:35:59.795Z,33.30
2023-02-13T19:39:01.211Z,31.33
2023-02-13T19:41:51.523Z,32.85
2023-02-13T19:44:42.039Z,31.15
2023-02-13T19:47:31.889Z,32.53
2023-02-13T19:50:22.827Z,31.90
2023-02-13T19:53:13.199Z,31.45
2023-02-13T19:56:05.475Z,30.25
2023-02-13T19:58:56.436Z,35.15
2023-02-13T20:01:46.705Z,32.63
2023-02-13T20:04:38.256Z,38.38
2023-02-13T20:07:28.342Z,34.70
2023-02-13T20:10:18.178Z,34.50
2023-02-13T20:13:08.357Z,41.00
2023-02-13T20:15:58.876Z,38.33
2023-02-13T20:18:49.409Z,37.70
2023-02-13T20:21:41.526Z,34.78
2023-02-13T20:24:33.054Z,37.10
2023-02-13T20:27:23.162Z,39.17
2023-02-13T20:30:15.186Z,41.53
2023-02-13T20:33:06.060Z,41.25
2023-02-13T20:35:55.983Z,40.40
2023-02-13T20:38:46.885Z,38.60
2023-02-13T20:41:38.139Z,32.30
2023-02-13T20:44:29.540Z,32.72
2023-02-13T20:47:19.834Z,33.35
2023-02-13T20:50:09.979Z,35.97
2023-02-13T20:52:59.843Z,28.77
2023-02-13T20:55:49.720Z,39.08
2023-02-13T20:58:41.543Z,33.13
2023-02-13T21:01:34.123Z,33.75
2023-02-13T21:04:24.368Z,34.97
2023-02-13T21:07:14.265Z,32.38
2023-02-13T21:10:05.733Z,39.92
2023-02-13T21:12:55.845Z,35.85
2023-02-13T21:15:48.201Z,36.42
2023-02-13T21:18:39.392Z,35.92
2023-02-13T21:21:32.416Z,34.25
2023-02-13T21:24:23.079Z,38.88
2023-02-13T21:27:13.115Z,36.38
2023-02-13T21:30:04.139Z,38.78
2023-02-13T21:32:54.437Z,38.67
2023-02-13T21:35:44.398Z,45.28
2023-02-13T21:38:38.708Z,39.38
2023-02-13T21:41:28.983Z,41.70
2023-02-13T21:44:18.853Z,36.55
2023-02-13T21:47:09.239Z,41.50
2023-02-13T21:49:59.408Z,35.90
2023-02-13T21:52:49.362Z,39.67
2023-02-13T21:55:39.360Z,39.85
2023-02-13T21:58:33.119Z,43.58
2023-02-13T22:04:17.941Z,44.33
2023-02-13T22:07:08.443Z,37.58
2023-02-13T22:09:58.669Z,43.85
2023-02-13T22:12:53.460Z,42.42
2023-02-13T22:15:43.667Z,42.78
2023-02-13T22:18:36.390Z,39.45
2023-02-13T22:21:30.633Z,41.70
2023-02-13T22:24:20.943Z,41.35
2023-02-13T22:27:11.290Z,41.78
2023-02-13T22:30:01.569Z,42.08
2023-02-13T22:32:51.530Z,44.22
2023-02-13T22:35:42.049Z,45.70
2023-02-13T22:38:33.439Z,39.15
2023-02-13T22:41:25.313Z,43.25
2023-02-13T22:44:15.220Z,36.00
2023-02-13T22:47:07.203Z,46.15
2023-02-13T22:49:57.332Z,46.95
2023-02-13T22:52:47.878Z,44.00
2023-02-13T22:55:38.036Z,47.65
2023-02-13T22:58:28.091Z,47.83
2023-02-13T23:01:21.316Z,46.38
2023-02-13T23:04:12.621Z,49.33
2023-02-13T23:07:02.793Z,47.10
2023-02-13T23:09:52.693Z,54.33
2023-02-13T23:12:45.679Z,55.10
2023-02-13T23:15:36.981Z,55.10
2023-02-13T23:18:27.516Z,50.88
2023-02-13T23:21:18.059Z,55.92
2023-02-13T23:24:08.320Z,46.75
2023-02-13T23:26:59.810Z,51.78
2023-02-13T23:29:50.623Z,47.83
2023-02-13T23:32:43.585Z,50.13
2023-02-13T23:35:33.489Z,40.10
2023-02-13T23:38:24.422Z,48.55
2023-02-13T23:41:14.840Z,53.10
2023-02-13T23:44:04.809Z,48.38
2023-02-13T23:46:54.730Z,50.03
2023-02-13T23:49:45.423Z,55.97
2023-02-13T23:52:35.513Z,54.17
2023-02-13T23:55:25.482Z,54.42
2023-02-13T23:58:16.250Z,50.75
